sensor_id;sensor_type;location;lat;lon;timestamp;P1;durP1;ratioP1;P2;durP2;ratioP2
61685;SDS011;47592;45.904;8.978;2023-09-19T00:01:28;6.47;;;1.95;;
61685;SDS011;47592;45.904;8.978;2023-09-19T00:03:59;5.07;;;1.73;;
61685;SDS011;47592;45.904;8.978;2023-09-19T00:06:24;4.72;;;1.52;;
61685;SDS011;47592;45.904;8.978;2023-09-19T00:08:52;6.80;;;2.30;;
61685;SDS011;47592;45.904;8.978;2023-09-19T00:11:17;5.60;;;1.60;;
61685;SDS011;47592;45.904;8.978;2023-09-19T00:13:42;4.60;;;1.88;;
61685;SDS011;47592;45.904;8.978;2023-09-19T00:16:11;7.03;;;1.90;;
61685;SDS011;47592;45.904;8.978;2023-09-19T00:18:37;7.68;;;1.60;;
61685;SDS011;47592;45.904;8.978;2023-09-19T00:21:03;4.63;;;1.92;;
61685;SDS011;47592;45.904;8.978;2023-09-19T00:23:30;5.30;;;1.85;;
61685;SDS011;47592;45.904;8.978;2023-09-19T00:25:59;4.78;;;1.60;;
61685;SDS011;47592;45.904;8.978;2023-09-19T00:28:27;5.65;;;1.80;;
61685;SDS011;47592;45.904;8.978;2023-09-19T00:30:56;7.70;;;1.85;;
61685;SDS011;47592;45.904;8.978;2023-09-19T00:33:22;7.77;;;1.73;;
61685;SDS011;47592;45.904;8.978;2023-09-19T00:35:48;4.50;;;1.70;;
61685;SDS011;47592;45.904;8.978;2023-09-19T00:38:13;6.22;;;1.88;;
61685;SDS011;47592;45.904;8.978;2023-09-19T00:40:43;4.80;;;1.60;;
61685;SDS011;47592;45.904;8.978;2023-09-19T00:43:08;5.15;;;1.67;;
61685;SDS011;47592;45.904;8.978;2023-09-19T00:45:36;4.72;;;1.73;;
61685;SDS011;47592;45.904;8.978;2023-09-19T00:48:09;4.47;;;1.83;;
61685;SDS011;47592;45.904;8.978;2023-09-19T00:50:35;5.20;;;1.63;;
61685;SDS011;47592;45.904;8.978;2023-09-19T00:53:01;6.85;;;2.05;;
61685;SDS011;47592;45.904;8.978;2023-09-19T00:55:28;4.70;;;1.75;;
61685;SDS011;47592;45.904;8.978;2023-09-19T01:00:23;7.00;;;2.30;;
61685;SDS011;47592;45.904;8.978;2023-09-19T01:02:49;5.25;;;2.10;;
61685;SDS011;47592;45.904;8.978;2023-09-19T01:05:15;8.43;;;2.03;;
61685;SDS011;47592;45.904;8.978;2023-09-19T01:07:40;5.07;;;1.75;;
61685;SDS011;47592;45.904;8.978;2023-09-19T01:10:06;5.45;;;2.00;;
61685;SDS011;47592;45.904;8.978;2023-09-19T01:17:48;6.15;;;1.88;;
61685;SDS011;47592;45.904;8.978;2023-09-19T01:20:30;5.90;;;1.80;;
61685;SDS011;47592;45.904;8.978;2023-09-19T01:28:39;5.15;;;1.70;;
61685;SDS011;47592;45.904;8.978;2023-09-19T01:31:06;4.45;;;1.50;;
61685;SDS011;47592;45.904;8.978;2023-09-19T01:33:55;6.20;;;1.70;;
61685;SDS011;47592;45.904;8.978;2023-09-19T01:36:28;6.40;;;1.65;;
61685;SDS011;47592;45.904;8.978;2023-09-19T01:38:54;5.43;;;1.95;;
61685;SDS011;47592;45.904;8.978;2023-09-19T01:41:26;5.18;;;1.30;;
61685;SDS011;47592;45.904;8.978;2023-09-19T01:43:52;6.28;;;1.70;;
61685;SDS011;47592;45.904;8.978;2023-09-19T01:46:30;4.00;;;1.50;;
61685;SDS011;47592;45.904;8.978;2023-09-19T01:51:32;5.13;;;1.95;;
61685;SDS011;47592;45.904;8.978;2023-09-19T01:58:53;5.88;;;1.58;;
61685;SDS011;47592;45.904;8.978;2023-09-19T02:01:22;6.38;;;2.10;;
61685;SDS011;47592;45.904;8.978;2023-09-19T02:03:47;4.88;;;1.58;;
61685;SDS011;47592;45.904;8.978;2023-09-19T02:06:16;6.28;;;1.60;;
61685;SDS011;47592;45.904;8.978;2023-09-19T02:11:08;6.28;;;1.67;;
61685;SDS011;47592;45.904;8.978;2023-09-19T02:13:33;4.57;;;1.70;;
61685;SDS011;47592;45.904;8.978;2023-09-19T02:15:59;5.13;;;1.80;;
61685;SDS011;47592;45.904;8.978;2023-09-19T02:18:24;8.27;;;2.08;;
61685;SDS011;47592;45.904;8.978;2023-09-19T02:20:49;4.50;;;1.80;;
61685;SDS011;47592;45.904;8.978;2023-09-19T02:23:16;4.85;;;1.75;;
61685;SDS011;47592;45.904;8.978;2023-09-19T02:25:42;6.43;;;2.10;;
61685;SDS011;47592;45.904;8.978;2023-09-19T02:28:11;5.05;;;1.73;;
61685;SDS011;47592;45.904;8.978;2023-09-19T02:30:36;5.22;;;2.00;;
61685;SDS011;47592;45.904;8.978;2023-09-19T02:33:02;5.68;;;1.80;;
61685;SDS011;47592;45.904;8.978;2023-09-19T02:35:28;6.30;;;1.90;;
61685;SDS011;47592;45.904;8.978;2023-09-19T02:37:53;6.45;;;1.80;;
61685;SDS011;47592;45.904;8.978;2023-09-19T02:40:19;6.43;;;1.98;;
61685;SDS011;47592;45.904;8.978;2023-09-19T02:42:54;6.18;;;2.03;;
61685;SDS011;47592;45.904;8.978;2023-09-19T02:45:22;6.43;;;2.03;;
61685;SDS011;47592;45.904;8.978;2023-09-19T02:47:48;4.70;;;1.88;;
61685;SDS011;47592;45.904;8.978;2023-09-19T02:50:14;4.78;;;1.90;;
61685;SDS011;47592;45.904;8.978;2023-09-19T02:52:45;4.93;;;1.80;;
61685;SDS011;47592;45.904;8.978;2023-09-19T02:55:15;8.10;;;1.80;;
61685;SDS011;47592;45.904;8.978;2023-09-19T02:57:52;4.38;;;1.92;;
61685;SDS011;47592;45.904;8.978;2023-09-19T03:00:19;5.70;;;1.70;;
61685;SDS011;47592;45.904;8.978;2023-09-19T03:02:46;7.22;;;2.25;;
61685;SDS011;47592;45.904;8.978;2023-09-19T03:05:13;5.72;;;2.30;;
61685;SDS011;47592;45.904;8.978;2023-09-19T03:07:39;4.75;;;1.80;;
61685;SDS011;47592;45.904;8.978;2023-09-19T03:10:07;5.70;;;1.92;;
61685;SDS011;47592;45.904;8.978;2023-09-19T03:12:32;5.07;;;1.98;;
61685;SDS011;47592;45.904;8.978;2023-09-19T03:14:58;6.57;;;2.33;;
61685;SDS011;47592;45.904;8.978;2023-09-19T03:17:24;6.63;;;1.80;;
61685;SDS011;47592;45.904;8.978;2023-09-19T03:19:50;7.68;;;1.95;;
61685;SDS011;47592;45.904;8.978;2023-09-19T03:22:15;7.10;;;2.08;;
61685;SDS011;47592;45.904;8.978;2023-09-19T03:24:41;5.80;;;1.95;;
61685;SDS011;47592;45.904;8.978;2023-09-19T03:27:08;7.32;;;1.98;;
61685;SDS011;47592;45.904;8.978;2023-09-19T03:29:34;10.43;;;2.03;;
61685;SDS011;47592;45.904;8.978;2023-09-19T03:31:59;5.80;;;1.90;;
61685;SDS011;47592;45.904;8.978;2023-09-19T03:34:24;5.87;;;2.00;;
61685;SDS011;47592;45.904;8.978;2023-09-19T03:36:49;7.10;;;1.98;;
61685;SDS011;47592;45.904;8.978;2023-09-19T03:39:15;5.53;;;1.88;;
61685;SDS011;47592;45.904;8.978;2023-09-19T03:41:41;6.10;;;2.03;;
61685;SDS011;47592;45.904;8.978;2023-09-19T03:44:06;7.63;;;1.85;;
61685;SDS011;47592;45.904;8.978;2023-09-19T03:46:32;5.72;;;1.60;;
61685;SDS011;47592;45.904;8.978;2023-09-19T03:48:59;8.35;;;1.80;;
61685;SDS011;47592;45.904;8.978;2023-09-19T03:51:27;5.20;;;1.98;;
61685;SDS011;47592;45.904;8.978;2023-09-19T03:53:55;5.85;;;2.00;;
61685;SDS011;47592;45.904;8.978;2023-09-19T03:56:21;5.50;;;1.77;;
61685;SDS011;47592;45.904;8.978;2023-09-19T03:58:46;5.33;;;1.73;;
61685;SDS011;47592;45.904;8.978;2023-09-19T04:01:11;5.73;;;1.93;;
61685;SDS011;47592;45.904;8.978;2023-09-19T04:03:38;5.35;;;1.65;;
61685;SDS011;47592;45.904;8.978;2023-09-19T04:06:13;5.47;;;1.83;;
61685;SDS011;47592;45.904;8.978;2023-09-19T04:08:38;5.18;;;1.80;;
61685;SDS011;47592;45.904;8.978;2023-09-19T04:11:03;5.93;;;2.20;;
61685;SDS011;47592;45.904;8.978;2023-09-19T04:13:29;3.50;;;1.50;;
61685;SDS011;47592;45.904;8.978;2023-09-19T04:15:56;5.38;;;1.90;;
61685;SDS011;47592;45.904;8.978;2023-09-19T04:18:24;5.40;;;2.08;;
61685;SDS011;47592;45.904;8.978;2023-09-19T04:20:50;6.95;;;2.00;;
61685;SDS011;47592;45.904;8.978;2023-09-19T04:23:15;5.78;;;1.80;;
61685;SDS011;47592;45.904;8.978;2023-09-19T04:25:41;7.68;;;1.95;;
61685;SDS011;47592;45.904;8.978;2023-09-19T04:28:07;6.32;;;1.65;;
61685;SDS011;47592;45.904;8.978;2023-09-19T04:30:32;4.73;;;1.97;;
61685;SDS011;47592;45.904;8.978;2023-09-19T04:32:57;7.03;;;1.80;;
61685;SDS011;47592;45.904;8.978;2023-09-19T04:35:25;6.40;;;2.17;;
61685;SDS011;47592;45.904;8.978;2023-09-19T04:37:54;4.65;;;1.75;;
61685;SDS011;47592;45.904;8.978;2023-09-19T04:40:19;4.60;;;1.50;;
61685;SDS011;47592;45.904;8.978;2023-09-19T04:42:45;4.97;;;1.83;;
61685;SDS011;47592;45.904;8.978;2023-09-19T04:45:11;5.43;;;2.00;;
61685;SDS011;47592;45.904;8.978;2023-09-19T04:47:37;6.57;;;1.80;;
61685;SDS011;47592;45.904;8.978;2023-09-19T04:50:04;4.63;;;1.98;;
61685;SDS011;47592;45.904;8.978;2023-09-19T04:52:30;6.88;;;1.88;;
61685;SDS011;47592;45.904;8.978;2023-09-19T04:54:58;5.40;;;1.92;;
61685;SDS011;47592;45.904;8.978;2023-09-19T04:57:23;4.77;;;1.80;;
61685;SDS011;47592;45.904;8.978;2023-09-19T04:59:51;6.57;;;1.73;;
61685;SDS011;47592;45.904;8.978;2023-09-19T05:02:18;5.63;;;1.60;;
61685;SDS011;47592;45.904;8.978;2023-09-19T05:04:44;6.45;;;1.95;;
61685;SDS011;47592;45.904;8.978;2023-09-19T05:07:11;5.67;;;1.60;;
61685;SDS011;47592;45.904;8.978;2023-09-19T05:09:37;5.63;;;1.50;;
61685;SDS011;47592;45.904;8.978;2023-09-19T05:12:04;3.90;;;1.60;;
61685;SDS011;47592;45.904;8.978;2023-09-19T05:14:29;6.82;;;1.70;;
61685;SDS011;47592;45.904;8.978;2023-09-19T05:16:57;5.45;;;1.88;;
61685;SDS011;47592;45.904;8.978;2023-09-19T05:19:22;4.27;;;1.80;;
61685;SDS011;47592;45.904;8.978;2023-09-19T05:21:50;5.82;;;1.80;;
61685;SDS011;47592;45.904;8.978;2023-09-19T05:24:18;5.63;;;1.60;;
61685;SDS011;47592;45.904;8.978;2023-09-19T05:26:43;8.00;;;1.97;;
61685;SDS011;47592;45.904;8.978;2023-09-19T05:29:10;6.30;;;1.70;;
61685;SDS011;47592;45.904;8.978;2023-09-19T05:31:36;7.00;;;1.80;;
61685;SDS011;47592;45.904;8.978;2023-09-19T05:36:31;6.35;;;1.90;;
61685;SDS011;47592;45.904;8.978;2023-09-19T05:38:56;5.70;;;1.83;;
61685;SDS011;47592;45.904;8.978;2023-09-19T05:41:27;5.97;;;1.77;;
61685;SDS011;47592;45.904;8.978;2023-09-19T05:43:52;4.72;;;1.90;;
61685;SDS011;47592;45.904;8.978;2023-09-19T05:46:20;7.60;;;2.00;;
61685;SDS011;47592;45.904;8.978;2023-09-19T05:48:45;7.65;;;1.80;;
61685;SDS011;47592;45.904;8.978;2023-09-19T05:51:12;5.47;;;1.73;;
61685;SDS011;47592;45.904;8.978;2023-09-19T05:53:40;5.33;;;2.13;;
61685;SDS011;47592;45.904;8.978;2023-09-19T05:56:08;5.40;;;1.50;;
61685;SDS011;47592;45.904;8.978;2023-09-19T05:58:35;5.45;;;1.75;;
61685;SDS011;47592;45.904;8.978;2023-09-19T06:01:01;5.80;;;2.10;;
61685;SDS011;47592;45.904;8.978;2023-09-19T06:03:26;5.30;;;1.98;;
61685;SDS011;47592;45.904;8.978;2023-09-19T06:05:55;9.00;;;2.00;;
61685;SDS011;47592;45.904;8.978;2023-09-19T06:08:22;4.15;;;1.70;;
61685;SDS011;47592;45.904;8.978;2023-09-19T06:10:47;6.63;;;1.90;;
61685;SDS011;47592;45.904;8.978;2023-09-19T06:15:43;5.65;;;1.85;;
61685;SDS011;47592;45.904;8.978;2023-09-19T06:18:10;6.68;;;1.98;;
61685;SDS011;47592;45.904;8.978;2023-09-19T06:20:39;6.03;;;2.17;;
61685;SDS011;47592;45.904;8.978;2023-09-19T06:23:09;5.45;;;1.80;;
61685;SDS011;47592;45.904;8.978;2023-09-19T06:25:35;5.88;;;1.77;;
61685;SDS011;47592;45.904;8.978;2023-09-19T06:28:00;4.10;;;1.70;;
61685;SDS011;47592;45.904;8.978;2023-09-19T06:30:30;7.00;;;2.17;;
61685;SDS011;47592;45.904;8.978;2023-09-19T06:32:59;5.93;;;2.15;;
61685;SDS011;47592;45.904;8.978;2023-09-19T06:35:28;6.50;;;1.83;;
61685;SDS011;47592;45.904;8.978;2023-09-19T06:37:54;5.40;;;2.00;;
61685;SDS011;47592;45.904;8.978;2023-09-19T06:40:22;7.10;;;1.98;;
61685;SDS011;47592;45.904;8.978;2023-09-19T06:42:50;7.18;;;2.20;;
61685;SDS011;47592;45.904;8.978;2023-09-19T06:45:19;6.90;;;2.00;;
61685;SDS011;47592;45.904;8.978;2023-09-19T06:47:53;6.68;;;2.33;;
61685;SDS011;47592;45.904;8.978;2023-09-19T06:50:22;7.07;;;2.40;;
61685;SDS011;47592;45.904;8.978;2023-09-19T06:52:49;7.40;;;3.05;;
61685;SDS011;47592;45.904;8.978;2023-09-19T06:55:17;11.60;;;5.17;;
61685;SDS011;47592;45.904;8.978;2023-09-19T06:57:45;8.52;;;3.38;;
61685;SDS011;47592;45.904;8.978;2023-09-19T07:00:11;7.60;;;2.40;;
61685;SDS011;47592;45.904;8.978;2023-09-19T07:05:21;6.05;;;2.30;;
61685;SDS011;47592;45.904;8.978;2023-09-19T07:07:48;5.20;;;1.70;;
61685;SDS011;47592;45.904;8.978;2023-09-19T07:10:14;6.95;;;1.70;;
61685;SDS011;47592;45.904;8.978;2023-09-19T07:12:39;7.15;;;2.65;;
61685;SDS011;47592;45.904;8.978;2023-09-19T07:15:06;6.53;;;1.92;;
61685;SDS011;47592;45.904;8.978;2023-09-19T07:17:31;6.60;;;1.67;;
61685;SDS011;47592;45.904;8.978;2023-09-19T07:20:00;7.05;;;1.90;;
61685;SDS011;47592;45.904;8.978;2023-09-19T07:22:26;5.40;;;2.17;;
61685;SDS011;47592;45.904;8.978;2023-09-19T07:24:51;7.85;;;2.03;;
61685;SDS011;47592;45.904;8.978;2023-09-19T07:27:17;6.13;;;1.70;;
61685;SDS011;47592;45.904;8.978;2023-09-19T07:29:44;6.15;;;1.65;;
61685;SDS011;47592;45.904;8.978;2023-09-19T07:32:10;5.97;;;1.67;;
61685;SDS011;47592;45.904;8.978;2023-09-19T07:34:36;6.55;;;1.70;;
61685;SDS011;47592;45.904;8.978;2023-09-19T07:37:04;4.38;;;1.50;;
61685;SDS011;47592;45.904;8.978;2023-09-19T07:39:31;6.50;;;1.77;;
61685;SDS011;47592;45.904;8.978;2023-09-19T07:41:56;6.57;;;1.50;;
61685;SDS011;47592;45.904;8.978;2023-09-19T07:44:24;5.05;;;1.60;;
61685;SDS011;47592;45.904;8.978;2023-09-19T07:46:50;6.30;;;1.40;;
61685;SDS011;47592;45.904;8.978;2023-09-19T07:49:17;3.55;;;1.33;;
61685;SDS011;47592;45.904;8.978;2023-09-19T07:51:43;4.43;;;1.40;;
61685;SDS011;47592;45.904;8.978;2023-09-19T07:54:11;3.97;;;1.50;;
61685;SDS011;47592;45.904;8.978;2023-09-19T07:56:37;5.53;;;1.52;;
61685;SDS011;47592;45.904;8.978;2023-09-19T07:59:02;4.85;;;1.70;;
61685;SDS011;47592;45.904;8.978;2023-09-19T08:01:27;5.60;;;1.80;;
61685;SDS011;47592;45.904;8.978;2023-09-19T08:03:53;7.27;;;1.73;;
61685;SDS011;47592;45.904;8.978;2023-09-19T08:06:18;7.00;;;2.08;;
61685;SDS011;47592;45.904;8.978;2023-09-19T08:08:45;7.20;;;2.10;;
61685;SDS011;47592;45.904;8.978;2023-09-19T08:11:14;9.77;;;3.65;;
61685;SDS011;47592;45.904;8.978;2023-09-19T08:13:46;9.98;;;4.70;;
61685;SDS011;47592;45.904;8.978;2023-09-19T08:16:13;7.47;;;3.30;;
61685;SDS011;47592;45.904;8.978;2023-09-19T08:18:40;7.97;;;2.60;;
61685;SDS011;47592;45.904;8.978;2023-09-19T08:21:05;5.70;;;2.35;;
61685;SDS011;47592;45.904;8.978;2023-09-19T08:23:33;8.15;;;3.20;;
61685;SDS011;47592;45.904;8.978;2023-09-19T08:26:01;7.45;;;3.03;;
61685;SDS011;47592;45.904;8.978;2023-09-19T08:28:32;5.45;;;2.80;;
61685;SDS011;47592;45.904;8.978;2023-09-19T08:31:05;8.43;;;2.95;;
61685;SDS011;47592;45.904;8.978;2023-09-19T08:33:33;6.38;;;2.55;;
61685;SDS011;47592;45.904;8.978;2023-09-19T08:35:59;5.85;;;1.90;;
61685;SDS011;47592;45.904;8.978;2023-09-19T08:38:27;4.50;;;1.90;;
61685;SDS011;47592;45.904;8.978;2023-09-19T08:40:57;4.90;;;1.73;;
61685;SDS011;47592;45.904;8.978;2023-09-19T08:43:22;5.30;;;1.77;;
61685;SDS011;47592;45.904;8.978;2023-09-19T08:45:48;5.45;;;1.83;;
61685;SDS011;47592;45.904;8.978;2023-09-19T08:48:27;5.68;;;1.77;;
61685;SDS011;47592;45.904;8.978;2023-09-19T08:50:56;5.45;;;1.50;;
61685;SDS011;47592;45.904;8.978;2023-09-19T08:53:26;5.90;;;1.40;;
61685;SDS011;47592;45.904;8.978;2023-09-19T08:55:53;6.00;;;1.40;;
61685;SDS011;47592;45.904;8.978;2023-09-19T08:58:23;7.93;;;1.50;;
61685;SDS011;47592;45.904;8.978;2023-09-19T09:00:52;6.57;;;1.48;;
61685;SDS011;47592;45.904;8.978;2023-09-19T09:03:18;4.40;;;1.38;;
61685;SDS011;47592;45.904;8.978;2023-09-19T09:05:45;5.28;;;1.58;;
61685;SDS011;47592;45.904;8.978;2023-09-19T09:08:11;3.47;;;1.23;;
61685;SDS011;47592;45.904;8.978;2023-09-19T09:10:37;5.78;;;1.33;;
61685;SDS011;47592;45.904;8.978;2023-09-19T09:13:02;4.07;;;1.25;;
61685;SDS011;47592;45.904;8.978;2023-09-19T09:15:29;4.28;;;1.60;;
61685;SDS011;47592;45.904;8.978;2023-09-19T09:17:55;5.32;;;1.30;;
61685;SDS011;47592;45.904;8.978;2023-09-19T09:20:23;5.50;;;1.10;;
61685;SDS011;47592;45.904;8.978;2023-09-19T09:22:55;4.47;;;1.30;;
61685;SDS011;47592;45.904;8.978;2023-09-19T09:25:47;4.43;;;1.20;;
61685;SDS011;47592;45.904;8.978;2023-09-19T09:28:10;5.20;;;1.13;;
61685;SDS011;47592;45.904;8.978;2023-09-19T09:30:36;4.20;;;1.20;;
61685;SDS011;47592;45.904;8.978;2023-09-19T09:33:11;3.53;;;1.25;;
61685;SDS011;47592;45.904;8.978;2023-09-19T09:35:37;4.93;;;1.30;;
61685;SDS011;47592;45.904;8.978;2023-09-19T09:38:12;6.00;;;1.20;;
61685;SDS011;47592;45.904;8.978;2023-09-19T09:40:48;4.10;;;1.00;;
61685;SDS011;47592;45.904;8.978;2023-09-19T09:43:26;3.35;;;1.10;;
61685;SDS011;47592;45.904;8.978;2023-09-19T09:51:39;4.80;;;1.40;;
61685;SDS011;47592;45.904;8.978;2023-09-19T09:54:13;5.55;;;1.33;;
61685;SDS011;47592;45.904;8.978;2023-09-19T09:56:52;4.10;;;1.30;;
61685;SDS011;47592;45.904;8.978;2023-09-19T09:59:19;4.10;;;1.23;;
61685;SDS011;47592;45.904;8.978;2023-09-19T10:04:26;3.22;;;1.10;;
61685;SDS011;47592;45.904;8.978;2023-09-19T10:06:54;3.65;;;0.93;;
61685;SDS011;47592;45.904;8.978;2023-09-19T10:09:19;5.77;;;1.10;;
61685;SDS011;47592;45.904;8.978;2023-09-19T10:11:58;4.07;;;1.20;;
61685;SDS011;47592;45.904;8.978;2023-09-19T10:14:29;4.20;;;0.90;;
61685;SDS011;47592;45.904;8.978;2023-09-19T10:22:04;2.30;;;0.70;;
61685;SDS011;47592;45.904;8.978;2023-09-19T10:24:30;2.83;;;0.77;;
61685;SDS011;47592;45.904;8.978;2023-09-19T10:26:56;3.72;;;0.70;;
61685;SDS011;47592;45.904;8.978;2023-09-19T10:29:22;2.88;;;0.82;;
61685;SDS011;47592;45.904;8.978;2023-09-19T10:31:49;2.67;;;0.70;;
61685;SDS011;47592;45.904;8.978;2023-09-19T10:34:19;4.22;;;0.93;;
61685;SDS011;47592;45.904;8.978;2023-09-19T10:36:45;2.90;;;0.95;;
61685;SDS011;47592;45.904;8.978;2023-09-19T10:39:14;3.58;;;1.10;;
61685;SDS011;47592;45.904;8.978;2023-09-19T10:41:43;4.05;;;1.00;;
61685;SDS011;47592;45.904;8.978;2023-09-19T10:44:20;4.35;;;0.88;;
61685;SDS011;47592;45.904;8.978;2023-09-19T10:46:47;3.60;;;0.80;;
61685;SDS011;47592;45.904;8.978;2023-09-19T10:49:15;2.28;;;0.70;;
61685;SDS011;47592;45.904;8.978;2023-09-19T10:51:43;3.72;;;0.90;;
61685;SDS011;47592;45.904;8.978;2023-09-19T10:54:13;3.17;;;1.00;;
61685;SDS011;47592;45.904;8.978;2023-09-19T10:56:59;2.72;;;0.85;;
61685;SDS011;47592;45.904;8.978;2023-09-19T10:59:25;3.13;;;0.70;;
61685;SDS011;47592;45.904;8.978;2023-09-19T11:01:52;3.33;;;0.90;;
61685;SDS011;47592;45.904;8.978;2023-09-19T11:06:59;4.20;;;0.98;;
61685;SDS011;47592;45.904;8.978;2023-09-19T11:09:24;4.80;;;0.90;;
61685;SDS011;47592;45.904;8.978;2023-09-19T11:11:53;5.00;;;1.15;;
61685;SDS011;47592;45.904;8.978;2023-09-19T11:22:27;3.88;;;1.33;;
61685;SDS011;47592;45.904;8.978;2023-09-19T11:30:32;4.75;;;1.05;;
61685;SDS011;47592;45.904;8.978;2023-09-19T11:43:46;4.50;;;1.37;;
61685;SDS011;47592;45.904;8.978;2023-09-19T11:46:12;5.57;;;1.15;;
61685;SDS011;47592;45.904;8.978;2023-09-19T11:53:48;6.45;;;1.40;;
61685;SDS011;47592;45.904;8.978;2023-09-19T11:56:15;4.28;;;1.20;;
61685;SDS011;47592;45.904;8.978;2023-09-19T11:58:42;6.70;;;1.33;;
61685;SDS011;47592;45.904;8.978;2023-09-19T12:01:07;3.40;;;1.02;;
61685;SDS011;47592;45.904;8.978;2023-09-19T12:03:38;4.97;;;1.38;;
61685;SDS011;47592;45.904;8.978;2023-09-19T12:06:15;5.47;;;1.30;;
61685;SDS011;47592;45.904;8.978;2023-09-19T12:08:41;4.68;;;1.40;;
61685;SDS011;47592;45.904;8.978;2023-09-19T12:11:11;5.35;;;1.17;;
61685;SDS011;47592;45.904;8.978;2023-09-19T12:16:10;4.47;;;1.40;;
61685;SDS011;47592;45.904;8.978;2023-09-19T12:18:36;4.25;;;1.15;;
61685;SDS011;47592;45.904;8.978;2023-09-19T12:21:04;5.50;;;1.33;;
61685;SDS011;47592;45.904;8.978;2023-09-19T12:23:32;6.45;;;1.55;;
61685;SDS011;47592;45.904;8.978;2023-09-19T12:26:02;3.75;;;1.20;;
61685;SDS011;47592;45.904;8.978;2023-09-19T12:28:38;5.25;;;1.58;;
61685;SDS011;47592;45.904;8.978;2023-09-19T12:31:07;5.20;;;1.30;;
61685;SDS011;47592;45.904;8.978;2023-09-19T12:33:33;6.25;;;1.40;;
61685;SDS011;47592;45.904;8.978;2023-09-19T12:35:59;4.65;;;1.50;;
61685;SDS011;47592;45.904;8.978;2023-09-19T12:38:25;4.03;;;1.10;;
61685;SDS011;47592;45.904;8.978;2023-09-19T12:40:50;5.47;;;1.40;;
61685;SDS011;47592;45.904;8.978;2023-09-19T12:43:16;5.18;;;1.35;;
61685;SDS011;47592;45.904;8.978;2023-09-19T12:45:42;7.07;;;1.38;;
61685;SDS011;47592;45.904;8.978;2023-09-19T12:48:24;4.95;;;1.40;;
61685;SDS011;47592;45.904;8.978;2023-09-19T12:50:59;5.25;;;1.40;;
61685;SDS011;47592;45.904;8.978;2023-09-19T12:53:30;4.85;;;1.40;;
61685;SDS011;47592;45.904;8.978;2023-09-19T12:55:58;4.90;;;1.60;;
61685;SDS011;47592;45.904;8.978;2023-09-19T12:58:25;4.35;;;1.40;;
61685;SDS011;47592;45.904;8.978;2023-09-19T13:00:51;4.57;;;1.38;;
61685;SDS011;47592;45.904;8.978;2023-09-19T13:06:00;5.32;;;1.40;;
61685;SDS011;47592;45.904;8.978;2023-09-19T13:08:28;5.22;;;1.40;;
61685;SDS011;47592;45.904;8.978;2023-09-19T13:13:34;4.18;;;1.40;;
61685;SDS011;47592;45.904;8.978;2023-09-19T13:16:01;4.43;;;1.20;;
61685;SDS011;47592;45.904;8.978;2023-09-19T13:18:29;5.15;;;1.60;;
61685;SDS011;47592;45.904;8.978;2023-09-19T13:21:10;7.32;;;1.45;;
61685;SDS011;47592;45.904;8.978;2023-09-19T13:23:40;11.10;;;2.05;;
61685;SDS011;47592;45.904;8.978;2023-09-19T13:26:07;4.90;;;1.65;;
61685;SDS011;47592;45.904;8.978;2023-09-19T13:28:33;4.22;;;1.40;;
61685;SDS011;47592;45.904;8.978;2023-09-19T13:30:58;4.88;;;1.48;;
61685;SDS011;47592;45.904;8.978;2023-09-19T13:33:24;4.77;;;1.47;;
61685;SDS011;47592;45.904;8.978;2023-09-19T13:35:51;4.55;;;1.50;;
61685;SDS011;47592;45.904;8.978;2023-09-19T13:38:20;3.92;;;1.35;;
61685;SDS011;47592;45.904;8.978;2023-09-19T13:40:47;5.68;;;1.60;;
61685;SDS011;47592;45.904;8.978;2023-09-19T13:43:17;8.05;;;1.70;;
61685;SDS011;47592;45.904;8.978;2023-09-19T13:45:42;8.17;;;1.60;;
61685;SDS011;47592;45.904;8.978;2023-09-19T13:48:10;5.25;;;1.55;;
61685;SDS011;47592;45.904;8.978;2023-09-19T13:50:38;4.88;;;1.65;;
61685;SDS011;47592;45.904;8.978;2023-09-19T13:53:07;5.25;;;1.38;;
61685;SDS011;47592;45.904;8.978;2023-09-19T13:55:32;4.55;;;1.50;;
61685;SDS011;47592;45.904;8.978;2023-09-19T13:57:57;5.03;;;1.57;;
61685;SDS011;47592;45.904;8.978;2023-09-19T14:00:23;6.33;;;1.63;;
61685;SDS011;47592;45.904;8.978;2023-09-19T14:02:48;4.40;;;1.20;;
61685;SDS011;47592;45.904;8.978;2023-09-19T14:05:14;4.80;;;1.58;;
61685;SDS011;47592;45.904;8.978;2023-09-19T14:07:42;5.18;;;1.55;;
61685;SDS011;47592;45.904;8.978;2023-09-19T14:10:10;4.35;;;1.55;;
61685;SDS011;47592;45.904;8.978;2023-09-19T14:12:36;7.50;;;1.80;;
61685;SDS011;47592;45.904;8.978;2023-09-19T14:15:02;5.53;;;1.50;;
61685;SDS011;47592;45.904;8.978;2023-09-19T14:17:27;5.47;;;1.42;;
61685;SDS011;47592;45.904;8.978;2023-09-19T14:19:55;5.05;;;1.70;;
61685;SDS011;47592;45.904;8.978;2023-09-19T14:22:20;6.00;;;1.77;;
61685;SDS011;47592;45.904;8.978;2023-09-19T14:24:46;4.73;;;1.30;;
61685;SDS011;47592;45.904;8.978;2023-09-19T14:27:11;6.03;;;1.57;;
61685;SDS011;47592;45.904;8.978;2023-09-19T14:29:36;4.50;;;1.40;;
61685;SDS011;47592;45.904;8.978;2023-09-19T14:32:02;6.03;;;1.63;;
61685;SDS011;47592;45.904;8.978;2023-09-19T14:34:32;4.63;;;1.60;;
61685;SDS011;47592;45.904;8.978;2023-09-19T14:36:58;4.90;;;1.40;;
61685;SDS011;47592;45.904;8.978;2023-09-19T14:39:25;5.07;;;1.17;;
61685;SDS011;47592;45.904;8.978;2023-09-19T14:41:52;5.32;;;1.85;;
61685;SDS011;47592;45.904;8.978;2023-09-19T14:44:19;5.13;;;1.50;;
61685;SDS011;47592;45.904;8.978;2023-09-19T14:46:45;5.43;;;1.50;;
61685;SDS011;47592;45.904;8.978;2023-09-19T14:49:10;4.85;;;1.40;;
61685;SDS011;47592;45.904;8.978;2023-09-19T14:51:37;5.10;;;1.40;;
61685;SDS011;47592;45.904;8.978;2023-09-19T14:54:05;6.93;;;1.65;;
61685;SDS011;47592;45.904;8.978;2023-09-19T14:56:32;5.97;;;1.90;;
61685;SDS011;47592;45.904;8.978;2023-09-19T14:58:57;4.00;;;1.37;;
61685;SDS011;47592;45.904;8.978;2023-09-19T15:01:22;5.13;;;1.60;;
61685;SDS011;47592;45.904;8.978;2023-09-19T15:03:48;5.25;;;1.42;;
61685;SDS011;47592;45.904;8.978;2023-09-19T15:06:14;5.63;;;1.70;;
61685;SDS011;47592;45.904;8.978;2023-09-19T15:08:42;4.75;;;1.77;;
61685;SDS011;47592;45.904;8.978;2023-09-19T15:11:13;4.70;;;1.70;;
61685;SDS011;47592;45.904;8.978;2023-09-19T15:13:41;5.25;;;1.60;;
61685;SDS011;47592;45.904;8.978;2023-09-19T15:16:07;4.25;;;1.55;;
61685;SDS011;47592;45.904;8.978;2023-09-19T15:18:45;4.65;;;1.52;;
61685;SDS011;47592;45.904;8.978;2023-09-19T15:21:12;5.25;;;1.42;;
61685;SDS011;47592;45.904;8.978;2023-09-19T15:23:39;3.97;;;1.42;;
61685;SDS011;47592;45.904;8.978;2023-09-19T15:26:05;7.07;;;1.83;;
61685;SDS011;47592;45.904;8.978;2023-09-19T15:28:31;4.72;;;1.40;;
61685;SDS011;47592;45.904;8.978;2023-09-19T15:31:18;8.65;;;2.00;;
61685;SDS011;47592;45.904;8.978;2023-09-19T15:33:42;5.15;;;1.55;;
61685;SDS011;47592;45.904;8.978;2023-09-19T15:36:14;5.90;;;1.60;;
61685;SDS011;47592;45.904;8.978;2023-09-19T15:41:22;3.97;;;1.42;;
61685;SDS011;47592;45.904;8.978;2023-09-19T15:43:47;6.55;;;1.80;;
61685;SDS011;47592;45.904;8.978;2023-09-19T15:46:12;6.50;;;1.80;;
61685;SDS011;47592;45.904;8.978;2023-09-19T15:48:41;6.50;;;1.88;;
61685;SDS011;47592;45.904;8.978;2023-09-19T15:51:06;5.75;;;1.52;;
61685;SDS011;47592;45.904;8.978;2023-09-19T15:53:41;3.97;;;1.48;;
61685;SDS011;47592;45.904;8.978;2023-09-19T15:56:06;5.72;;;1.50;;
61685;SDS011;47592;45.904;8.978;2023-09-19T15:58:32;5.93;;;2.07;;
61685;SDS011;47592;45.904;8.978;2023-09-19T16:01:04;5.50;;;1.90;;
61685;SDS011;47592;45.904;8.978;2023-09-19T16:03:29;6.30;;;1.80;;
61685;SDS011;47592;45.904;8.978;2023-09-19T16:05:56;5.95;;;2.03;;
61685;SDS011;47592;45.904;8.978;2023-09-19T16:08:21;5.53;;;1.93;;
61685;SDS011;47592;45.904;8.978;2023-09-19T16:10:49;6.35;;;2.00;;
61685;SDS011;47592;45.904;8.978;2023-09-19T16:13:14;4.83;;;1.90;;
61685;SDS011;47592;45.904;8.978;2023-09-19T16:15:41;5.10;;;1.90;;
61685;SDS011;47592;45.904;8.978;2023-09-19T16:18:06;5.25;;;1.77;;